St. Andrew — C6YQ2 — position and weather

sailwx.info

Track history (hours):
 
Tides and Currents Weather Stations Pressure Air Temp Water Temp Dewpoint Dewpoint Depression Visibility Wind Speed Wind Dir Waves Ship Positions

St. Andrew

Last reported at 2017-Sep-20 00:31 UTC. Time now 2017-Sep-21 12:29 UTC.
Position N 40°29' E 026°54'.

Length 180 m; draft 10.2 m.

Type: Cargo ship. MMSI: 311041600.

Date/timePositionNaut miles runAvg speedWind from/ knotsBaromVisibWave heightAir tempDewpointWater temp
2017-Sep-20 00:31N 40°29' E 026°54'310.5
2017-Sep-20 00:16N 40°31' E 026°57'410.7
2017-Sep-19 23:53N 40°32' E 027°02'410.8
2017-Sep-19 23:30N 40°34' E 027°07'610.9
2017-Sep-19 22:59N 40°37' E 027°13'99 4.1
2017-Sep-18 23:08N 41°26' E 029°07'0 0.4
2017-Sep-18 22:54N 41°26' E 029°07'1 0.5
2017-Sep-18 21:31N 41°26' E 029°08'0 0.6
2017-Sep-18 21:31N 41°26' E 029°08'0 0.6
2017-Sep-18 21:00N 41°26' E 029°08'0 0.6
2017-Sep-18 20:28N 41°26' E 029°09'0 0.6
2017-Sep-18 19:58N 41°26' E 029°09'0 0.6
2017-Sep-18 19:30N 41°26' E 029°09'1 0.7
2017-Sep-18 17:24N 41°25' E 029°11'0 0.6
2017-Sep-18 17:00N 41°25' E 029°12'0 0.7
2017-Sep-18 16:29N 41°25' E 029°12'0 0.6
2017-Sep-18 16:00N 41°25' E 029°12'0 0.3
2017-Sep-18 15:31N 41°25' E 029°13'0 0.5
2017-Sep-18 14:55N 41°25' E 029°12'2 3.6
2017-Sep-18 14:30N 41°24' E 029°11'3 6.3
2017-Sep-18 14:01N 41°21' E 029°09'0 0.6
2017-Sep-18 13:30N 41°21' E 029°10'0 0.5
2017-Sep-18 12:58N 41°21' E 029°10'30 3.4
2017-Sep-18 04:13N 41°36' E 029°45'310.6
2017-Sep-18 03:58N 41°37' E 029°48'510.6
2017-Sep-18 03:30N 41°39' E 029°54'510.5
2017-Sep-18 03:00N 41°41' E 030°00'510.5
2017-Sep-18 02:30N 41°44' E 030°06'1410.3
2017-Sep-18 01:09N 41°50' E 030°23'710.3
2017-Sep-18 00:26N 41°53' E 030°32'1210.6
2017-Sep-17 23:19N 41°59' E 030°46'310.8
2017-Sep-17 23:01N 42°00' E 030°50'610.8
2017-Sep-17 22:28N 42°03' E 030°57'510.8
2017-Sep-17 22:00N 42°05' E 031°03'510.8
2017-Sep-17 21:31N 42°08' E 031°10'4310.7
2017-Sep-17 17:31N 42°27' E 032°01'010.9
2017-Sep-17 17:30N 42°27' E 032°01'710.5
2017-Sep-17 16:52N 42°30' E 032°09'710.5
2017-Sep-17 16:14N 42°33' E 032°17'310.7
2017-Sep-17 15:56N 42°34' E 032°21'25510.8
2017-Sep-16 16:16N 44°30' E 037°35'310.0
2017-Sep-16 15:59N 44°31' E 037°38'5 9.8
2017-Sep-16 15:30N 44°33' E 037°44'5 9.7
2017-Sep-16 15:01N 44°34' E 037°51'4 7.0
2017-Sep-16 14:30N 44°35' E 037°56'0 0.3
2017-Sep-16 14:00N 44°34' E 037°56'0 0.0
2017-Sep-16 13:31N 44°34' E 037°56'0 0.0
2017-Sep-16 13:00N 44°34' E 037°56'0 0.0
2017-Sep-16 12:31N 44°34' E 037°56'0 0.0
2017-Sep-16 12:01N 44°34' E 037°56'0 0.0
2017-Sep-16 11:31N 44°34' E 037°56'0 0.0
2017-Sep-16 10:57N 44°34' E 037°56'0 0.0
2017-Sep-16 10:31N 44°34' E 037°56'0 0.0
2017-Sep-16 10:01N 44°34' E 037°56'0 0.0
2017-Sep-16 07:54N 44°34' E 037°56'0 0.0
2017-Sep-16 07:30N 44°34' E 037°56'0 0.0
2017-Sep-16 06:57N 44°34' E 037°56'0 0.0
2017-Sep-16 06:31N 44°34' E 037°56'0 0.1
2017-Sep-16 06:00N 44°34' E 037°56'0 0.1
2017-Sep-16 05:31N 44°34' E 037°56'0 0.1
2017-Sep-16 05:00N 44°34' E 037°56'0 0.0
2017-Sep-16 04:30N 44°34' E 037°56'0 0.1
2017-Sep-16 03:54N 44°34' E 037°56'0 0.1
2017-Sep-16 03:30N 44°34' E 037°56'0 0.1
2017-Sep-16 03:00N 44°34' E 037°56'0 0.0
2017-Sep-16 02:30N 44°34' E 037°56'0 0.0
2017-Sep-16 02:00N 44°34' E 037°56'0 0.0
2017-Sep-16 01:30N 44°34' E 037°56'0 0.2
2017-Sep-16 01:00N 44°34' E 037°56'1 2.7
2017-Sep-16 00:30N 44°34' E 037°54'3 6.3
2017-Sep-16 00:01N 44°35' E 037°50'4 7.8
2017-Sep-15 23:30N 44°39' E 037°51'4 7.5
2017-Sep-15 23:00N 44°43' E 037°48'1 2.6
2017-Sep-15 22:30N 44°44' E 037°47'0 0.0
2017-Sep-15 21:18N 44°44' E 037°47'0 0.0
2017-Sep-15 21:00N 44°44' E 037°47'0 0.0
2017-Sep-15 20:30N 44°44' E 037°47'0 0.0
2017-Sep-15 19:57N 44°44' E 037°47'0 0.0
2017-Sep-15 19:30N 44°44' E 037°47'0 0.0
2017-Sep-15 19:00N 44°44' E 037°47'0 0.0
2017-Sep-15 18:30N 44°44' E 037°47'0 0.0
2017-Sep-15 17:42N 44°44' E 037°47'0 0.0
2017-Sep-15 17:30N 44°44' E 037°47'0 0.0
2017-Sep-15 17:00N 44°44' E 037°47'0 0.0
2017-Sep-15 16:27N 44°44' E 037°47'0 0.0
2017-Sep-15 16:00N 44°44' E 037°47'0 0.0
2017-Sep-15 15:06N 44°44' E 037°47'0 0.1
2017-Sep-15 15:00N 44°44' E 037°47'0 0.0
2017-Sep-15 14:30N 44°44' E 037°47'0 0.0
2017-Sep-15 14:00N 44°44' E 037°47'0 0.0
2017-Sep-15 13:30N 44°44' E 037°47'0 0.0
2017-Sep-15 13:00N 44°44' E 037°47'0 0.0
2017-Sep-15 12:30N 44°44' E 037°47'0 0.0
2017-Sep-15 12:00N 44°44' E 037°47'0 0.0
2017-Sep-15 11:30N 44°44' E 037°47'0 0.0
2017-Sep-15 11:00N 44°44' E 037°47'0 0.0
2017-Sep-15 10:30N 44°44' E 037°47'0 0.0
2017-Sep-15 10:00N 44°44' E 037°47'0 0.0
2017-Sep-15 09:30N 44°44' E 037°47'0 0.0
2017-Sep-15 09:00N 44°44' E 037°47'0 0.0
2017-Sep-15 08:30N 44°44' E 037°47'0 0.0
2017-Sep-15 08:00N 44°44' E 037°47'0 0.0
2017-Sep-15 07:30N 44°44' E 037°47'0 0.0
2017-Sep-15 07:00N 44°44' E 037°47'0 0.0
2017-Sep-15 06:30N 44°44' E 037°47'0 0.0
2017-Sep-15 06:00N 44°44' E 037°47'0 0.0
2017-Sep-15 05:30N 44°44' E 037°47'0 0.0
2017-Sep-15 05:00N 44°44' E 037°47'0 0.0
2017-Sep-15 04:30N 44°44' E 037°47'0 0.0
2017-Sep-15 04:00N 44°44' E 037°47'0 0.0
2017-Sep-15 03:30N 44°44' E 037°47'0 0.0
2017-Sep-15 03:00N 44°44' E 037°47'0 0.0
2017-Sep-15 02:30N 44°44' E 037°47'0 0.0
2017-Sep-15 02:00N 44°44' E 037°47'0 0.0
2017-Sep-15 01:30N 44°44' E 037°47'0 0.0
2017-Sep-15 01:00N 44°44' E 037°47'0 0.0
2017-Sep-15 00:30N 44°44' E 037°47'0 0.0
2017-Sep-14 23:57N 44°44' E 037°47'0 0.0
2017-Sep-14 23:30N 44°44' E 037°47'0 0.0
2017-Sep-14 23:00N 44°44' E 037°47'0 0.0
2017-Sep-14 22:27N 44°44' E 037°47'0 0.0
2017-Sep-14 22:00N 44°44' E 037°47'0 0.0
2017-Sep-14 21:30N 44°44' E 037°47'0 0.0
2017-Sep-14 21:00N 44°44' E 037°47'0 0.0
2017-Sep-14 20:30N 44°44' E 037°47'0 0.0
2017-Sep-14 20:00N 44°44' E 037°47'0 0.0
2017-Sep-14 19:30N 44°44' E 037°47'0 0.0
2017-Sep-14 19:00N 44°44' E 037°47'0 0.0
2017-Sep-14 18:30N 44°44' E 037°47'0 0.0
2017-Sep-14 18:00N 44°44' E 037°47'0 0.0
2017-Sep-14 17:24N 44°44' E 037°47'0 0.0
2017-Sep-14 17:00N 44°44' E 037°47'0 0.0
2017-Sep-14 16:30N 44°44' E 037°47'0 0.0
2017-Sep-14 16:00N 44°44' E 037°47'0 0.0
2017-Sep-14 15:30N 44°44' E 037°47'0 0.0
2017-Sep-14 15:00N 44°44' E 037°47'0 0.0
2017-Sep-14 14:30N 44°44' E 037°47'0 0.0
2017-Sep-14 14:00N 44°44' E 037°47'0 0.0
2017-Sep-14 13:30N 44°44' E 037°47'0 0.0
2017-Sep-14 13:00N 44°44' E 037°47'0 0.0
2017-Sep-14 12:12N 44°44' E 037°47'0 0.0
2017-Sep-14 12:00N 44°44' E 037°47'0 0.0
2017-Sep-14 11:30N 44°44' E 037°47'0 0.0
2017-Sep-14 11:00N 44°44' E 037°47'0 1.0
2017-Sep-14 10:31N 44°44' E 037°48'3 6.9
2017-Sep-14 10:01N 44°40' E 037°50'3 6.1
2017-Sep-14 09:31N 44°38' E 037°52'4 7.0
2017-Sep-14 09:00N 44°34' E 037°53'3 6.3
2017-Sep-14 08:30N 44°34' E 037°58'0 0.4
2017-Sep-14 08:00N 44°34' E 037°58'0 0.0
2017-Sep-14 07:30N 44°34' E 037°58'0 0.0
2017-Sep-14 07:00N 44°34' E 037°58'0 0.0
2017-Sep-14 06:30N 44°34' E 037°58'0 0.0
2017-Sep-14 06:00N 44°34' E 037°58'0 0.0
2017-Sep-14 05:30N 44°34' E 037°58'0 0.0
2017-Sep-14 05:00N 44°34' E 037°58'0 0.1
2017-Sep-14 04:30N 44°34' E 037°58'0 0.1
2017-Sep-14 04:00N 44°34' E 037°58'0 0.1
2017-Sep-14 03:24N 44°34' E 037°58'0 0.1
2017-Sep-14 03:00N 44°34' E 037°58'0 0.1
2017-Sep-14 02:30N 44°34' E 037°58'0 0.0
2017-Sep-14 02:00N 44°34' E 037°58'0 0.1
2017-Sep-14 01:30N 44°34' E 037°58'0 0.1
2017-Sep-14 01:00N 44°34' E 037°58'0 0.0
2017-Sep-14 00:30N 44°34' E 037°58'0 0.1
2017-Sep-14 00:00N 44°34' E 037°58'0 0.2
2017-Sep-13 23:30N 44°34' E 037°57'0 0.1
2017-Sep-13 23:00N 44°34' E 037°57'0 0.0
2017-Sep-13 22:30N 44°34' E 037°57'0 0.1
2017-Sep-13 22:00N 44°34' E 037°57'0 0.1
2017-Sep-13 21:30N 44°34' E 037°57'0 0.1
2017-Sep-13 21:00N 44°34' E 037°57'0 0.1
2017-Sep-13 20:30N 44°34' E 037°57'0 0.1
2017-Sep-13 20:00N 44°34' E 037°57'0 0.0
2017-Sep-13 19:30N 44°34' E 037°58'0 0.0
2017-Sep-13 18:54N 44°34' E 037°58'0 0.1
2017-Sep-13 18:30N 44°34' E 037°58'0 0.0
2017-Sep-13 18:00N 44°34' E 037°58'0 0.1
2017-Sep-13 17:30N 44°34' E 037°58'0 0.0
2017-Sep-13 17:00N 44°34' E 037°58'0 0.0
2017-Sep-13 16:30N 44°34' E 037°58'0 0.0
2017-Sep-13 15:57N 44°34' E 037°58'0 0.0
2017-Sep-13 15:30N 44°34' E 037°58'0 0.0
2017-Sep-13 15:00N 44°34' E 037°58'0 0.0
2017-Sep-13 14:30N 44°34' E 037°58'0 0.1
2017-Sep-13 14:00N 44°34' E 037°58'0 0.1
2017-Sep-13 13:30N 44°34' E 037°58'0 0.1
2017-Sep-13 13:00N 44°34' E 037°58'0 0.0
2017-Sep-13 12:30N 44°34' E 037°58'0 0.0
2017-Sep-13 12:00N 44°34' E 037°58'0 0.0
2017-Sep-13 11:30N 44°34' E 037°57'0 0.0
2017-Sep-13 11:00N 44°34' E 037°57'0 0.1
2017-Sep-13 10:30N 44°34' E 037°57'0 0.0
2017-Sep-13 10:00N 44°34' E 037°57'0 0.0
2017-Sep-13 09:30N 44°34' E 037°57'0 0.1
2017-Sep-13 09:00N 44°34' E 037°57'0 0.0
2017-Sep-13 08:30N 44°34' E 037°57'0 0.0
2017-Sep-13 08:00N 44°34' E 037°57'0 0.1
2017-Sep-13 07:30N 44°34' E 037°58'0 0.1
2017-Sep-13 07:00N 44°34' E 037°58'0 0.0
2017-Sep-13 06:30N 44°34' E 037°57'0 0.1
2017-Sep-13 06:00N 44°34' E 037°57'0 0.1
2017-Sep-13 05:30N 44°34' E 037°57'0 0.0
2017-Sep-13 05:00N 44°34' E 037°57'0 0.0
2017-Sep-13 04:30N 44°34' E 037°57'0 0.0
2017-Sep-13 04:00N 44°34' E 037°57'0 0.1
2017-Sep-13 03:30N 44°34' E 037°57'0 0.0
2017-Sep-13 03:00N 44°34' E 037°57'0 0.1
2017-Sep-13 02:30N 44°34' E 037°57'0 0.0
2017-Sep-13 02:00N 44°34' E 037°57'0 0.0
2017-Sep-13 01:30N 44°34' E 037°57'0 0.0
2017-Sep-13 01:00N 44°34' E 037°57'0 0.1
2017-Sep-13 00:30N 44°34' E 037°57'0 0.0
2017-Sep-13 00:00N 44°34' E 037°57'0 0.0
2017-Sep-12 23:30N 44°34' E 037°57'0 0.0
2017-Sep-12 23:00N 44°34' E 037°57'0 0.0
2017-Sep-12 22:30N 44°34' E 037°57'0 0.0
2017-Sep-12 22:00N 44°34' E 037°58'0 0.0
2017-Sep-12 21:30N 44°34' E 037°58'0 0.0
2017-Sep-12 21:00N 44°34' E 037°58'0 0.0
2017-Sep-12 19:48N 44°34' E 037°57'0 0.1
2017-Sep-12 19:30N 44°34' E 037°58'0 0.1
2017-Sep-12 19:00N 44°34' E 037°57'0 0.1
2017-Sep-12 18:30N 44°34' E 037°58'0 0.0
2017-Sep-12 18:00N 44°34' E 037°58'0 0.1
2017-Sep-12 17:30N 44°34' E 037°57'0 0.1
2017-Sep-12 17:00N 44°34' E 037°57'0 0.0
2017-Sep-12 16:30N 44°34' E 037°57'0 0.0
2017-Sep-12 16:00N 44°34' E 037°57'0 0.0
2017-Sep-12 15:27N 44°34' E 037°57'0 0.0
2017-Sep-12 15:00N 44°34' E 037°57'0 0.0
2017-Sep-12 14:30N 44°34' E 037°57'0 0.0
2017-Sep-12 14:00N 44°34' E 037°57'0 0.0
2017-Sep-12 13:30N 44°34' E 037°57'0 0.0
2017-Sep-12 13:00N 44°34' E 037°57'0 0.0
2017-Sep-12 12:30N 44°34' E 037°57'0 0.0
2017-Sep-12 12:00N 44°34' E 037°57'0 0.0
2017-Sep-12 11:27N 44°34' E 037°57'0 0.0
2017-Sep-12 11:00N 44°34' E 037°57'0 0.0
2017-Sep-12 10:30N 44°34' E 037°57'0 0.0
2017-Sep-12 10:00N 44°34' E 037°57'0 0.0
2017-Sep-12 09:30N 44°34' E 037°57'0 0.0
2017-Sep-12 09:00N 44°34' E 037°57'0 0.0
2017-Sep-12 08:27N 44°34' E 037°57'0 0.0
2017-Sep-12 08:00N 44°34' E 037°57'0 0.0
2017-Sep-12 07:30N 44°34' E 037°57'0 0.3
2017-Sep-12 07:00N 44°34' E 037°57'0 0.1
2017-Sep-12 06:30N 44°34' E 037°58'0 0.0
2017-Sep-12 06:00N 44°34' E 037°57'0 0.0
2017-Sep-12 05:27N 44°34' E 037°57'0 0.0
2017-Sep-12 05:00N 44°34' E 037°57'0 0.1
2017-Sep-12 04:30N 44°34' E 037°57'0 0.0
2017-Sep-12 04:00N 44°34' E 037°57'0 0.0
2017-Sep-12 03:30N 44°34' E 037°57'0 0.0
2017-Sep-12 03:00N 44°34' E 037°57'0 0.1
2017-Sep-12 02:30N 44°34' E 037°58'0 0.0
2017-Sep-12 02:00N 44°34' E 037°58'0 0.0
2017-Sep-12 01:30N 44°34' E 037°58'0 0.1
2017-Sep-12 00:57N 44°34' E 037°58'0 0.0
2017-Sep-12 00:27N 44°34' E 037°58'0 0.1
2017-Sep-12 00:00N 44°34' E 037°58'0 0.1
2017-Sep-11 23:30N 44°34' E 037°58'0 0.0
2017-Sep-11 23:00N 44°34' E 037°58'0 0.0
2017-Sep-11 22:30N 44°34' E 037°58'0 0.1
2017-Sep-11 21:57N 44°34' E 037°57'0 0.1
2017-Sep-11 21:30N 44°34' E 037°58'0 0.1
2017-Sep-11 21:00N 44°34' E 037°58'0 0.0
2017-Sep-11 20:30N 44°34' E 037°58'0 0.0
2017-Sep-11 20:00N 44°34' E 037°58'0 0.1
2017-Sep-11 19:30N 44°34' E 037°57'0 0.0
2017-Sep-11 19:00N 44°34' E 037°58'0 0.1
2017-Sep-11 18:30N 44°34' E 037°58'0 0.0
2017-Sep-11 18:00N 44°34' E 037°58'0 0.0
2017-Sep-11 17:30N 44°34' E 037°58'0 0.0
2017-Sep-11 16:54N 44°34' E 037°58'0 0.0
2017-Sep-11 16:30N 44°34' E 037°58'0 0.0
2017-Sep-11 16:00N 44°34' E 037°58'0 0.0
2017-Sep-11 15:30N 44°34' E 037°58'0 0.0
2017-Sep-11 15:00N 44°34' E 037°58'0 0.0
2017-Sep-11 14:30N 44°34' E 037°58'0 0.0
2017-Sep-11 14:00N 44°34' E 037°58'0 0.0
2017-Sep-11 13:24N 44°34' E 037°58'0 0.0
2017-Sep-11 12:57N 44°34' E 037°58'0 0.0
2017-Sep-11 12:30N 44°34' E 037°58'0 0.0
2017-Sep-11 12:00N 44°34' E 037°58'0 0.0
2017-Sep-11 11:30N 44°34' E 037°58'0 0.0
2017-Sep-11 11:00N 44°34' E 037°58'0 0.0
2017-Sep-11 10:30N 44°34' E 037°58'0 0.0
2017-Sep-11 10:00N 44°34' E 037°58'0 0.0
2017-Sep-11 09:30N 44°34' E 037°58'0 0.0
2017-Sep-11 08:57N 44°34' E 037°58'0 0.1
2017-Sep-11 08:30N 44°34' E 037°58'0 0.1
2017-Sep-11 08:00N 44°34' E 037°58'0 0.1
2017-Sep-11 07:30N 44°34' E 037°58'0 0.1
2017-Sep-11 07:00N 44°34' E 037°57'0 0.1
2017-Sep-11 06:30N 44°34' E 037°57'0 0.1
2017-Sep-11 06:00N 44°34' E 037°57'0 0.0
2017-Sep-11 05:30N 44°34' E 037°57'0 0.0
2017-Sep-11 05:00N 44°34' E 037°57'0 0.0
2017-Sep-11 04:30N 44°34' E 037°57'0 0.0
2017-Sep-11 04:00N 44°34' E 037°57'0 0.0
2017-Sep-11 03:30N 44°34' E 037°57'0 0.0
2017-Sep-11 03:00N 44°34' E 037°57'0 0.0
2017-Sep-11 02:30N 44°34' E 037°57'0 0.1
2017-Sep-11 02:00N 44°34' E 037°57'0 0.0
2017-Sep-11 01:30N 44°34' E 037°57'0 0.1
2017-Sep-11 01:00N 44°34' E 037°57'0 0.1
2017-Sep-11 00:30N 44°34' E 037°57'0 0.0
2017-Sep-11 00:00N 44°34' E 037°57'0 0.0
2017-Sep-10 23:30N 44°34' E 037°57'0 0.0
2017-Sep-10 23:00N 44°34' E 037°57'0 0.1
2017-Sep-10 22:30N 44°34' E 037°57'1 1.4
2017-Sep-10 22:00N 44°34' E 037°57'3 5.1
2017-Sep-10 21:30N 44°33' E 037°54'5 9.9
2017-Sep-10 21:00N 44°30' E 037°48'611.7
2017-Sep-10 20:30N 44°29' E 037°40'611.6
2017-Sep-10 20:00N 44°26' E 037°32'1811.6
2017-Sep-10 18:28N 44°18' E 037°11'511.5
2017-Sep-10 18:00N 44°15' E 037°04'611.5
2017-Sep-10 17:30N 44°12' E 036°57'611.7
2017-Sep-10 17:00N 44°10' E 036°50'1111.7
2017-Sep-10 16:04N 44°05' E 036°36'111.5
2017-Sep-10 16:00N 44°04' E 036°35'611.6
2017-Sep-10 15:30N 44°01' E 036°28'611.6
2017-Sep-10 15:00N 43°59' E 036°21'1211.8
2017-Sep-10 14:00N 43°54' E 036°07'611.9
2017-Sep-10 13:30N 43°51' E 035°59'612.0
2017-Sep-10 13:00N 43°48' E 035°52'811.9
2017-Sep-10 12:22N 43°45' E 035°42'411.8
2017-Sep-10 11:59N 43°43' E 035°37'611.9
2017-Sep-10 11:30N 43°40' E 035°30'611.9
2017-Sep-10 10:59N 43°37' E 035°22'612.0
2017-Sep-10 10:27N 43°34' E 035°14'511.9
2017-Sep-10 10:00N 43°32' E 035°08'1911.8
2017-Sep-10 08:24N 43°23' E 034°45'911.8
2017-Sep-10 07:37N 43°19' E 034°33'111.9
2017-Sep-10 07:30N 43°18' E 034°32'611.9
2017-Sep-10 07:00N 43°16' E 034°25'611.9
2017-Sep-10 06:30N 43°13' E 034°17'  
Track history (hours):
 
Tides and Currents Weather Stations Pressure Air Temp Water Temp Dewpoint Dewpoint Depression Visibility Wind Speed Wind Dir Waves Ship Positions

St. Andrew

Last reported at 2017-Sep-20 00:31 UTC. Time now 2017-Sep-21 12:29 UTC.
Position N 40°29' E 026°54'.

Length 180 m; draft 10.2 m.

Type: Cargo ship. MMSI: 311041600.

Date/timePositionNaut miles runAvg speedWind from/ knotsBaromVisibWave heightAir tempDewpointWater temp
2017-Sep-20 00:31N 40°29' E 026°54'310.5
2017-Sep-20 00:16N 40°31' E 026°57'410.7
2017-Sep-19 23:53N 40°32' E 027°02'410.8
2017-Sep-19 23:30N 40°34' E 027°07'610.9
2017-Sep-19 22:59N 40°37' E 027°13'99 4.1
2017-Sep-18 23:08N 41°26' E 029°07'0 0.4
2017-Sep-18 22:54N 41°26' E 029°07'1 0.5
2017-Sep-18 21:31N 41°26' E 029°08'0 0.6
2017-Sep-18 21:31N 41°26' E 029°08'0 0.6
2017-Sep-18 21:00N 41°26' E 029°08'0 0.6
2017-Sep-18 20:28N 41°26' E 029°09'0 0.6
2017-Sep-18 19:58N 41°26' E 029°09'0 0.6
2017-Sep-18 19:30N 41°26' E 029°09'1 0.7
2017-Sep-18 17:24N 41°25' E 029°11'0 0.6
2017-Sep-18 17:00N 41°25' E 029°12'0 0.7
2017-Sep-18 16:29N 41°25' E 029°12'0 0.6
2017-Sep-18 16:00N 41°25' E 029°12'0 0.3
2017-Sep-18 15:31N 41°25' E 029°13'0 0.5
2017-Sep-18 14:55N 41°25' E 029°12'2 3.6
2017-Sep-18 14:30N 41°24' E 029°11'3 6.3
2017-Sep-18 14:01N 41°21' E 029°09'0 0.6
2017-Sep-18 13:30N 41°21' E 029°10'0 0.5
2017-Sep-18 12:58N 41°21' E 029°10'30 3.4
2017-Sep-18 04:13N 41°36' E 029°45'310.6
2017-Sep-18 03:58N 41°37' E 029°48'510.6
2017-Sep-18 03:30N 41°39' E 029°54'510.5
2017-Sep-18 03:00N 41°41' E 030°00'510.5
2017-Sep-18 02:30N 41°44' E 030°06'1410.3
2017-Sep-18 01:09N 41°50' E 030°23'710.3
2017-Sep-18 00:26N 41°53' E 030°32'1210.6
2017-Sep-17 23:19N 41°59' E 030°46'310.8
2017-Sep-17 23:01N 42°00' E 030°50'610.8
2017-Sep-17 22:28N 42°03' E 030°57'510.8
2017-Sep-17 22:00N 42°05' E 031°03'510.8
2017-Sep-17 21:31N 42°08' E 031°10'4310.7
2017-Sep-17 17:31N 42°27' E 032°01'010.9
2017-Sep-17 17:30N 42°27' E 032°01'710.5
2017-Sep-17 16:52N 42°30' E 032°09'710.5
2017-Sep-17 16:14N 42°33' E 032°17'310.7
2017-Sep-17 15:56N 42°34' E 032°21'25510.8
2017-Sep-16 16:16N 44°30' E 037°35'310.0
2017-Sep-16 15:59N 44°31' E 037°38'5 9.8
2017-Sep-16 15:30N 44°33' E 037°44'5 9.7
2017-Sep-16 15:01N 44°34' E 037°51'4 7.0
2017-Sep-16 14:30N 44°35' E 037°56'0 0.3
2017-Sep-16 14:00N 44°34' E 037°56'0 0.0
2017-Sep-16 13:31N 44°34' E 037°56'0 0.0
2017-Sep-16 13:00N 44°34' E 037°56'0 0.0
2017-Sep-16 12:31N 44°34' E 037°56'0 0.0
2017-Sep-16 12:01N 44°34' E 037°56'0 0.0
2017-Sep-16 11:31N 44°34' E 037°56'0 0.0
2017-Sep-16 10:57N 44°34' E 037°56'0 0.0
2017-Sep-16 10:31N 44°34' E 037°56'0 0.0
2017-Sep-16 10:01N 44°34' E 037°56'0 0.0
2017-Sep-16 07:54N 44°34' E 037°56'0 0.0
2017-Sep-16 07:30N 44°34' E 037°56'0 0.0
2017-Sep-16 06:57N 44°34' E 037°56'0 0.0
2017-Sep-16 06:31N 44°34' E 037°56'0 0.1
2017-Sep-16 06:00N 44°34' E 037°56'0 0.1
2017-Sep-16 05:31N 44°34' E 037°56'0 0.1
2017-Sep-16 05:00N 44°34' E 037°56'0 0.0
2017-Sep-16 04:30N 44°34' E 037°56'0 0.1
2017-Sep-16 03:54N 44°34' E 037°56'0 0.1
2017-Sep-16 03:30N 44°34' E 037°56'0 0.1
2017-Sep-16 03:00N 44°34' E 037°56'0 0.0
2017-Sep-16 02:30N 44°34' E 037°56'0 0.0
2017-Sep-16 02:00N 44°34' E 037°56'0 0.0
2017-Sep-16 01:30N 44°34' E 037°56'0 0.2
2017-Sep-16 01:00N 44°34' E 037°56'1 2.7
2017-Sep-16 00:30N 44°34' E 037°54'3 6.3
2017-Sep-16 00:01N 44°35' E 037°50'4 7.8
2017-Sep-15 23:30N 44°39' E 037°51'4 7.5
2017-Sep-15 23:00N 44°43' E 037°48'1 2.6
2017-Sep-15 22:30N 44°44' E 037°47'0 0.0
2017-Sep-15 21:18N 44°44' E 037°47'0 0.0
2017-Sep-15 21:00N 44°44' E 037°47'0 0.0
2017-Sep-15 20:30N 44°44' E 037°47'0 0.0
2017-Sep-15 19:57N 44°44' E 037°47'0 0.0
2017-Sep-15 19:30N 44°44' E 037°47'0 0.0
2017-Sep-15 19:00N 44°44' E 037°47'0 0.0
2017-Sep-15 18:30N 44°44' E 037°47'0 0.0
2017-Sep-15 17:42N 44°44' E 037°47'0 0.0
2017-Sep-15 17:30N 44°44' E 037°47'0 0.0
2017-Sep-15 17:00N 44°44' E 037°47'0 0.0
2017-Sep-15 16:27N 44°44' E 037°47'0 0.0
2017-Sep-15 16:00N 44°44' E 037°47'0 0.0
2017-Sep-15 15:06N 44°44' E 037°47'0 0.1
2017-Sep-15 15:00N 44°44' E 037°47'0 0.0
2017-Sep-15 14:30N 44°44' E 037°47'0 0.0
2017-Sep-15 14:00N 44°44' E 037°47'0 0.0
2017-Sep-15 13:30N 44°44' E 037°47'0 0.0
2017-Sep-15 13:00N 44°44' E 037°47'0 0.0
2017-Sep-15 12:30N 44°44' E 037°47'0 0.0
2017-Sep-15 12:00N 44°44' E 037°47'0 0.0
2017-Sep-15 11:30N 44°44' E 037°47'0 0.0
2017-Sep-15 11:00N 44°44' E 037°47'0 0.0
2017-Sep-15 10:30N 44°44' E 037°47'0 0.0
2017-Sep-15 10:00N 44°44' E 037°47'0 0.0
2017-Sep-15 09:30N 44°44' E 037°47'0 0.0
2017-Sep-15 09:00N 44°44' E 037°47'0 0.0
2017-Sep-15 08:30N 44°44' E 037°47'0 0.0
2017-Sep-15 08:00N 44°44' E 037°47'0 0.0
2017-Sep-15 07:30N 44°44' E 037°47'0 0.0
2017-Sep-15 07:00N 44°44' E 037°47'0 0.0
2017-Sep-15 06:30N 44°44' E 037°47'0 0.0
2017-Sep-15 06:00N 44°44' E 037°47'0 0.0
2017-Sep-15 05:30N 44°44' E 037°47'0 0.0
2017-Sep-15 05:00N 44°44' E 037°47'0 0.0
2017-Sep-15 04:30N 44°44' E 037°47'0 0.0
2017-Sep-15 04:00N 44°44' E 037°47'0 0.0
2017-Sep-15 03:30N 44°44' E 037°47'0 0.0
2017-Sep-15 03:00N 44°44' E 037°47'0 0.0
2017-Sep-15 02:30N 44°44' E 037°47'0 0.0
2017-Sep-15 02:00N 44°44' E 037°47'0 0.0
2017-Sep-15 01:30N 44°44' E 037°47'0 0.0
2017-Sep-15 01:00N 44°44' E 037°47'0 0.0
2017-Sep-15 00:30N 44°44' E 037°47'0 0.0
2017-Sep-14 23:57N 44°44' E 037°47'0 0.0
2017-Sep-14 23:30N 44°44' E 037°47'0 0.0
2017-Sep-14 23:00N 44°44' E 037°47'0 0.0
2017-Sep-14 22:27N 44°44' E 037°47'0 0.0
2017-Sep-14 22:00N 44°44' E 037°47'0 0.0
2017-Sep-14 21:30N 44°44' E 037°47'0 0.0
2017-Sep-14 21:00N 44°44' E 037°47'0 0.0
2017-Sep-14 20:30N 44°44' E 037°47'0 0.0
2017-Sep-14 20:00N 44°44' E 037°47'0 0.0
2017-Sep-14 19:30N 44°44' E 037°47'0 0.0
2017-Sep-14 19:00N 44°44' E 037°47'0 0.0
2017-Sep-14 18:30N 44°44' E 037°47'0 0.0
2017-Sep-14 18:00N 44°44' E 037°47'0 0.0
2017-Sep-14 17:24N 44°44' E 037°47'0 0.0
2017-Sep-14 17:00N 44°44' E 037°47'0 0.0
2017-Sep-14 16:30N 44°44' E 037°47'0 0.0
2017-Sep-14 16:00N 44°44' E 037°47'0 0.0
2017-Sep-14 15:30N 44°44' E 037°47'0 0.0
2017-Sep-14 15:00N 44°44' E 037°47'0 0.0
2017-Sep-14 14:30N 44°44' E 037°47'0 0.0
2017-Sep-14 14:00N 44°44' E 037°47'0 0.0
2017-Sep-14 13:30N 44°44' E 037°47'0 0.0
2017-Sep-14 13:00N 44°44' E 037°47'0 0.0
2017-Sep-14 12:12N 44°44' E 037°47'0 0.0
2017-Sep-14 12:00N 44°44' E 037°47'0 0.0
2017-Sep-14 11:30N 44°44' E 037°47'0 0.0
2017-Sep-14 11:00N 44°44' E 037°47'0 1.0
2017-Sep-14 10:31N 44°44' E 037°48'3 6.9
2017-Sep-14 10:01N 44°40' E 037°50'3 6.1
2017-Sep-14 09:31N 44°38' E 037°52'4 7.0
2017-Sep-14 09:00N 44°34' E 037°53'3 6.3
2017-Sep-14 08:30N 44°34' E 037°58'0 0.4
2017-Sep-14 08:00N 44°34' E 037°58'0 0.0
2017-Sep-14 07:30N 44°34' E 037°58'0 0.0
2017-Sep-14 07:00N 44°34' E 037°58'0 0.0
2017-Sep-14 06:30N 44°34' E 037°58'0 0.0
2017-Sep-14 06:00N 44°34' E 037°58'0 0.0
2017-Sep-14 05:30N 44°34' E 037°58'0 0.0
2017-Sep-14 05:00N 44°34' E 037°58'0 0.1
2017-Sep-14 04:30N 44°34' E 037°58'0 0.1
2017-Sep-14 04:00N 44°34' E 037°58'0 0.1
2017-Sep-14 03:24N 44°34' E 037°58'0 0.1
2017-Sep-14 03:00N 44°34' E 037°58'0 0.1
2017-Sep-14 02:30N 44°34' E 037°58'0 0.0
2017-Sep-14 02:00N 44°34' E 037°58'0 0.1
2017-Sep-14 01:30N 44°34' E 037°58'0 0.1
2017-Sep-14 01:00N 44°34' E 037°58'0 0.0
2017-Sep-14 00:30N 44°34' E 037°58'0 0.1
2017-Sep-14 00:00N 44°34' E 037°58'0 0.2
2017-Sep-13 23:30N 44°34' E 037°57'0 0.1
2017-Sep-13 23:00N 44°34' E 037°57'0 0.0
2017-Sep-13 22:30N 44°34' E 037°57'0 0.1
2017-Sep-13 22:00N 44°34' E 037°57'0 0.1
2017-Sep-13 21:30N 44°34' E 037°57'0 0.1
2017-Sep-13 21:00N 44°34' E 037°57'0 0.1
2017-Sep-13 20:30N 44°34' E 037°57'0 0.1
2017-Sep-13 20:00N 44°34' E 037°57'0 0.0
2017-Sep-13 19:30N 44°34' E 037°58'0 0.0
2017-Sep-13 18:54N 44°34' E 037°58'0 0.1
2017-Sep-13 18:30N 44°34' E 037°58'0 0.0
2017-Sep-13 18:00N 44°34' E 037°58'0 0.1
2017-Sep-13 17:30N 44°34' E 037°58'0 0.0
2017-Sep-13 17:00N 44°34' E 037°58'0 0.0
2017-Sep-13 16:30N 44°34' E 037°58'0 0.0
2017-Sep-13 15:57N 44°34' E 037°58'0 0.0
2017-Sep-13 15:30N 44°34' E 037°58'0 0.0
2017-Sep-13 15:00N 44°34' E 037°58'0 0.0
2017-Sep-13 14:30N 44°34' E 037°58'0 0.1
2017-Sep-13 14:00N 44°34' E 037°58'0 0.1
2017-Sep-13 13:30N 44°34' E 037°58'0 0.1
2017-Sep-13 13:00N 44°34' E 037°58'0 0.0
2017-Sep-13 12:30N 44°34' E 037°58'0 0.0
2017-Sep-13 12:00N 44°34' E 037°58'0 0.0
2017-Sep-13 11:30N 44°34' E 037°57'0 0.0
2017-Sep-13 11:00N 44°34' E 037°57'0 0.1
2017-Sep-13 10:30N 44°34' E 037°57'0 0.0
2017-Sep-13 10:00N 44°34' E 037°57'0 0.0
2017-Sep-13 09:30N 44°34' E 037°57'0 0.1
2017-Sep-13 09:00N 44°34' E 037°57'0 0.0
2017-Sep-13 08:30N 44°34' E 037°57'0 0.0
2017-Sep-13 08:00N 44°34' E 037°57'0 0.1
2017-Sep-13 07:30N 44°34' E 037°58'0 0.1
2017-Sep-13 07:00N 44°34' E 037°58'0 0.0
2017-Sep-13 06:30N 44°34' E 037°57'0 0.1
2017-Sep-13 06:00N 44°34' E 037°57'0 0.1
2017-Sep-13 05:30N 44°34' E 037°57'0 0.0
2017-Sep-13 05:00N 44°34' E 037°57'0 0.0
2017-Sep-13 04:30N 44°34' E 037°57'0 0.0
2017-Sep-13 04:00N 44°34' E 037°57'0 0.1
2017-Sep-13 03:30N 44°34' E 037°57'0 0.0
2017-Sep-13 03:00N 44°34' E 037°57'0 0.1
2017-Sep-13 02:30N 44°34' E 037°57'0 0.0
2017-Sep-13 02:00N 44°34' E 037°57'0 0.0
2017-Sep-13 01:30N 44°34' E 037°57'0 0.0
2017-Sep-13 01:00N 44°34' E 037°57'0 0.1
2017-Sep-13 00:30N 44°34' E 037°57'0 0.0
2017-Sep-13 00:00N 44°34' E 037°57'0 0.0
2017-Sep-12 23:30N 44°34' E 037°57'0 0.0
2017-Sep-12 23:00N 44°34' E 037°57'0 0.0
2017-Sep-12 22:30N 44°34' E 037°57'0 0.0
2017-Sep-12 22:00N 44°34' E 037°58'0 0.0
2017-Sep-12 21:30N 44°34' E 037°58'0 0.0
2017-Sep-12 21:00N 44°34' E 037°58'0 0.0
2017-Sep-12 19:48N 44°34' E 037°57'0 0.1
2017-Sep-12 19:30N 44°34' E 037°58'0 0.1
2017-Sep-12 19:00N 44°34' E 037°57'0 0.1
2017-Sep-12 18:30N 44°34' E 037°58'0 0.0
2017-Sep-12 18:00N 44°34' E 037°58'0 0.1
2017-Sep-12 17:30N 44°34' E 037°57'0 0.1
2017-Sep-12 17:00N 44°34' E 037°57'0 0.0
2017-Sep-12 16:30N 44°34' E 037°57'0 0.0
2017-Sep-12 16:00N 44°34' E 037°57'0 0.0
2017-Sep-12 15:27N 44°34' E 037°57'0 0.0
2017-Sep-12 15:00N 44°34' E 037°57'0 0.0
2017-Sep-12 14:30N 44°34' E 037°57'0 0.0
2017-Sep-12 14:00N 44°34' E 037°57'0 0.0
2017-Sep-12 13:30N 44°34' E 037°57'0 0.0
2017-Sep-12 13:00N 44°34' E 037°57'0 0.0
2017-Sep-12 12:30N 44°34' E 037°57'0 0.0
2017-Sep-12 12:00N 44°34' E 037°57'0 0.0
2017-Sep-12 11:27N 44°34' E 037°57'0 0.0
2017-Sep-12 11:00N 44°34' E 037°57'0 0.0
2017-Sep-12 10:30N 44°34' E 037°57'0 0.0
2017-Sep-12 10:00N 44°34' E 037°57'0 0.0
2017-Sep-12 09:30N 44°34' E 037°57'0 0.0
2017-Sep-12 09:00N 44°34' E 037°57'0 0.0
2017-Sep-12 08:27N 44°34' E 037°57'0 0.0
2017-Sep-12 08:00N 44°34' E 037°57'0 0.0
2017-Sep-12 07:30N 44°34' E 037°57'0 0.3
2017-Sep-12 07:00N 44°34' E 037°57'0 0.1
2017-Sep-12 06:30N 44°34' E 037°58'0 0.0
2017-Sep-12 06:00N 44°34' E 037°57'0 0.0
2017-Sep-12 05:27N 44°34' E 037°57'0 0.0
2017-Sep-12 05:00N 44°34' E 037°57'0 0.1
2017-Sep-12 04:30N 44°34' E 037°57'0 0.0
2017-Sep-12 04:00N 44°34' E 037°57'0 0.0
2017-Sep-12 03:30N 44°34' E 037°57'0 0.0
2017-Sep-12 03:00N 44°34' E 037°57'0 0.1
2017-Sep-12 02:30N 44°34' E 037°58'0 0.0
2017-Sep-12 02:00N 44°34' E 037°58'0 0.0
2017-Sep-12 01:30N 44°34' E 037°58'0 0.1
2017-Sep-12 00:57N 44°34' E 037°58'0 0.0
2017-Sep-12 00:27N 44°34' E 037°58'0 0.1
2017-Sep-12 00:00N 44°34' E 037°58'0 0.1
2017-Sep-11 23:30N 44°34' E 037°58'0 0.0
2017-Sep-11 23:00N 44°34' E 037°58'0 0.0
2017-Sep-11 22:30N 44°34' E 037°58'0 0.1
2017-Sep-11 21:57N 44°34' E 037°57'0 0.1
2017-Sep-11 21:30N 44°34' E 037°58'0 0.1
2017-Sep-11 21:00N 44°34' E 037°58'0 0.0
2017-Sep-11 20:30N 44°34' E 037°58'0 0.0
2017-Sep-11 20:00N 44°34' E 037°58'0 0.1
2017-Sep-11 19:30N 44°34' E 037°57'0 0.0
2017-Sep-11 19:00N 44°34' E 037°58'0 0.1
2017-Sep-11 18:30N 44°34' E 037°58'0 0.0
2017-Sep-11 18:00N 44°34' E 037°58'0 0.0
2017-Sep-11 17:30N 44°34' E 037°58'0 0.0
2017-Sep-11 16:54N 44°34' E 037°58'0 0.0
2017-Sep-11 16:30N 44°34' E 037°58'0 0.0
2017-Sep-11 16:00N 44°34' E 037°58'0 0.0
2017-Sep-11 15:30N 44°34' E 037°58'0 0.0
2017-Sep-11 15:00N 44°34' E 037°58'0 0.0
2017-Sep-11 14:30N 44°34' E 037°58'0 0.0
2017-Sep-11 14:00N 44°34' E 037°58'0 0.0
2017-Sep-11 13:24N 44°34' E 037°58'0 0.0
2017-Sep-11 12:57N 44°34' E 037°58'0 0.0
2017-Sep-11 12:30N 44°34' E 037°58'0 0.0
2017-Sep-11 12:00N 44°34' E 037°58'0 0.0
2017-Sep-11 11:30N 44°34' E 037°58'0 0.0
2017-Sep-11 11:00N 44°34' E 037°58'0 0.0
2017-Sep-11 10:30N 44°34' E 037°58'0 0.0
2017-Sep-11 10:00N 44°34' E 037°58'0 0.0
2017-Sep-11 09:30N 44°34' E 037°58'0 0.0
2017-Sep-11 08:57N 44°34' E 037°58'0 0.1
2017-Sep-11 08:30N 44°34' E 037°58'0 0.1
2017-Sep-11 08:00N 44°34' E 037°58'0 0.1
2017-Sep-11 07:30N 44°34' E 037°58'0 0.1
2017-Sep-11 07:00N 44°34' E 037°57'0 0.1
2017-Sep-11 06:30N 44°34' E 037°57'0 0.1
2017-Sep-11 06:00N 44°34' E 037°57'0 0.0
2017-Sep-11 05:30N 44°34' E 037°57'0 0.0
2017-Sep-11 05:00N 44°34' E 037°57'0 0.0
2017-Sep-11 04:30N 44°34' E 037°57'0 0.0
2017-Sep-11 04:00N 44°34' E 037°57'0 0.0
2017-Sep-11 03:30N 44°34' E 037°57'0 0.0
2017-Sep-11 03:00N 44°34' E 037°57'0 0.0
2017-Sep-11 02:30N 44°34' E 037°57'0 0.1
2017-Sep-11 02:00N 44°34' E 037°57'0 0.0
2017-Sep-11 01:30N 44°34' E 037°57'0 0.1
2017-Sep-11 01:00N 44°34' E 037°57'0 0.1
2017-Sep-11 00:30N 44°34' E 037°57'0 0.0
2017-Sep-11 00:00N 44°34' E 037°57'0 0.0
2017-Sep-10 23:30N 44°34' E 037°57'0 0.0
2017-Sep-10 23:00N 44°34' E 037°57'0 0.1
2017-Sep-10 22:30N 44°34' E 037°57'1 1.4
2017-Sep-10 22:00N 44°34' E 037°57'3 5.1
2017-Sep-10 21:30N 44°33' E 037°54'5 9.9
2017-Sep-10 21:00N 44°30' E 037°48'611.7
2017-Sep-10 20:30N 44°29' E 037°40'611.6
2017-Sep-10 20:00N 44°26' E 037°32'1811.6
2017-Sep-10 18:28N 44°18' E 037°11'511.5
2017-Sep-10 18:00N 44°15' E 037°04'611.5
2017-Sep-10 17:30N 44°12' E 036°57'611.7
2017-Sep-10 17:00N 44°10' E 036°50'1111.7
2017-Sep-10 16:04N 44°05' E 036°36'111.5
2017-Sep-10 16:00N 44°04' E 036°35'611.6
2017-Sep-10 15:30N 44°01' E 036°28'611.6
2017-Sep-10 15:00N 43°59' E 036°21'1211.8
2017-Sep-10 14:00N 43°54' E 036°07'611.9
2017-Sep-10 13:30N 43°51' E 035°59'612.0
2017-Sep-10 13:00N 43°48' E 035°52'811.9
2017-Sep-10 12:22N 43°45' E 035°42'411.8
2017-Sep-10 11:59N 43°43' E 035°37'611.9
2017-Sep-10 11:30N 43°40' E 035°30'611.9
2017-Sep-10 10:59N 43°37' E 035°22'612.0
2017-Sep-10 10:27N 43°34' E 035°14'511.9
2017-Sep-10 10:00N 43°32' E 035°08'1911.8
2017-Sep-10 08:24N 43°23' E 034°45'911.8
2017-Sep-10 07:37N 43°19' E 034°33'111.9
2017-Sep-10 07:30N 43°18' E 034°32'611.9
2017-Sep-10 07:00N 43°16' E 034°25'611.9
2017-Sep-10 06:30N 43°13' E 034°17'  

Dump ship's entire track history